sensor_id;sensor_type;location;lat;lon;timestamp;temperature;humidity
21805;DHT22;11064;47.102;15.452;2022-07-06T04:03:33;15.60;99.90
21805;DHT22;11064;47.102;15.452;2022-07-06T04:05:59;17.20;99.90
21805;DHT22;11064;47.102;15.452;2022-07-06T04:08:25;18.30;99.90
21805;DHT22;11064;47.102;15.452;2022-07-06T04:10:51;18.70;99.90
21805;DHT22;11064;47.102;15.452;2022-07-06T04:13:16;19.10;99.90
21805;DHT22;11064;47.102;15.452;2022-07-06T04:15:42;19.50;99.90
21805;DHT22;11064;47.102;15.452;2022-07-06T04:18:08;19.20;99.90
21805;DHT22;11064;47.102;15.452;2022-07-06T04:20:33;19.30;99.90
21805;DHT22;11064;47.102;15.452;2022-07-06T04:23:00;19.00;99.90
21805;DHT22;11064;47.102;15.452;2022-07-06T04:25:26;18.90;99.90
21805;DHT22;11064;47.102;15.452;2022-07-06T04:27:52;18.10;99.90
21805;DHT22;11064;47.102;15.452;2022-07-06T04:30:18;17.80;99.90
21805;DHT22;11064;47.102;15.452;2022-07-06T04:32:44;17.30;99.90
21805;DHT22;11064;47.102;15.452;2022-07-06T04:35:11;16.70;99.90
21805;DHT22;11064;47.102;15.452;2022-07-06T04:37:37;16.70;99.90
21805;DHT22;11064;47.102;15.452;2022-07-06T04:40:03;16.40;99.90
21805;DHT22;11064;47.102;15.452;2022-07-06T04:42:29;15.90;99.90
21805;DHT22;11064;47.102;15.452;2022-07-06T04:44:55;15.60;99.90
21805;DHT22;11064;47.102;15.452;2022-07-06T04:47:21;15.30;99.90
21805;DHT22;11064;47.102;15.452;2022-07-06T04:49:47;15.20;99.90
21805;DHT22;11064;47.102;15.452;2022-07-06T04:52:12;15.20;99.90
21805;DHT22;11064;47.102;15.452;2022-07-06T04:54:38;15.20;99.90
21805;DHT22;11064;47.102;15.452;2022-07-06T04:57:04;15.30;99.90
21805;DHT22;11064;47.102;15.452;2022-07-06T04:59:30;15.50;99.90
21805;DHT22;11064;47.102;15.452;2022-07-06T05:01:56;16.80;99.90
21805;DHT22;11064;47.102;15.452;2022-07-06T05:04:22;19.20;99.90
21805;DHT22;11064;47.102;15.452;2022-07-06T05:06:49;20.90;95.40
21805;DHT22;11064;47.102;15.452;2022-07-06T05:09:15;22.40;88.00
21805;DHT22;11064;47.102;15.452;2022-07-06T05:11:40;22.90;80.80
21805;DHT22;11064;47.102;15.452;2022-07-06T05:14:06;23.40;77.70
21805;DHT22;11064;47.102;15.452;2022-07-06T05:16:32;23.40;75.50
21805;DHT22;11064;47.102;15.452;2022-07-06T05:18:58;24.10;70.80
21805;DHT22;11064;47.102;15.452;2022-07-06T05:21:24;24.90;66.60
21805;DHT22;11064;47.102;15.452;2022-07-06T05:23:50;25.70;63.80
21805;DHT22;11064;47.102;15.452;2022-07-06T05:26:16;25.20;62.30
21805;DHT22;11064;47.102;15.452;2022-07-06T05:28:42;26.40;62.10
21805;DHT22;11064;47.102;15.452;2022-07-06T05:31:08;26.40;59.80
21805;DHT22;11064;47.102;15.452;2022-07-06T05:33:34;27.80;57.80
21805;DHT22;11064;47.102;15.452;2022-07-06T05:36:00;28.50;55.10
21805;DHT22;11064;47.102;15.452;2022-07-06T05:38:25;27.80;54.50
21805;DHT22;11064;47.102;15.452;2022-07-06T05:40:51;28.70;53.30
21805;DHT22;11064;47.102;15.452;2022-07-06T05:43:17;28.70;53.00
21805;DHT22;11064;47.102;15.452;2022-07-06T05:45:43;28.60;53.00
21805;DHT22;11064;47.102;15.452;2022-07-06T05:48:09;29.10;51.90
21805;DHT22;11064;47.102;15.452;2022-07-06T05:50:53;28.40;51.70
21805;DHT22;11064;47.102;15.452;2022-07-06T05:53:19;29.10;52.60
21805;DHT22;11064;47.102;15.452;2022-07-06T05:55:46;28.90;51.20
21805;DHT22;11064;47.102;15.452;2022-07-06T05:58:13;29.90;50.80
21805;DHT22;11064;47.102;15.452;2022-07-06T06:00:38;29.70;51.00
21805;DHT22;11064;47.102;15.452;2022-07-06T06:03:04;29.80;50.40
21805;DHT22;11064;47.102;15.452;2022-07-06T06:05:30;28.80;50.80
21805;DHT22;11064;47.102;15.452;2022-07-06T06:07:56;28.10;51.40
21805;DHT22;11064;47.102;15.452;2022-07-06T06:10:22;27.40;52.30
21805;DHT22;11064;47.102;15.452;2022-07-06T06:12:49;27.80;53.40
21805;DHT22;11064;47.102;15.452;2022-07-06T06:15:16;28.50;53.80
21805;DHT22;11064;47.102;15.452;2022-07-06T06:17:42;29.40;53.80
21805;DHT22;11064;47.102;15.452;2022-07-06T06:20:10;30.10;51.30
21805;DHT22;11064;47.102;15.452;2022-07-06T06:22:56;29.60;50.60
21805;DHT22;11064;47.102;15.452;2022-07-06T06:25:37;28.90;51.50
21805;DHT22;11064;47.102;15.452;2022-07-06T06:28:04;28.70;52.90
21805;DHT22;11064;47.102;15.452;2022-07-06T06:30:31;28.30;53.20
21805;DHT22;11064;47.102;15.452;2022-07-06T06:33:17;27.60;54.70
21805;DHT22;11064;47.102;15.452;2022-07-06T06:35:45;27.00;57.00
21805;DHT22;11064;47.102;15.452;2022-07-06T06:38:12;25.90;59.00
21805;DHT22;11064;47.102;15.452;2022-07-06T06:40:39;24.80;64.10
21805;DHT22;11064;47.102;15.452;2022-07-06T06:43:05;24.00;69.10
21805;DHT22;11064;47.102;15.452;2022-07-06T06:45:31;23.40;75.00
21805;DHT22;11064;47.102;15.452;2022-07-06T06:47:57;22.90;76.50
21805;DHT22;11064;47.102;15.452;2022-07-06T06:50:22;22.80;78.70
21805;DHT22;11064;47.102;15.452;2022-07-06T06:52:50;22.70;82.30
21805;DHT22;11064;47.102;15.452;2022-07-06T06:55:16;22.70;82.80
21805;DHT22;11064;47.102;15.452;2022-07-06T06:57:42;22.60;82.20
21805;DHT22;11064;47.102;15.452;2022-07-06T07:00:09;22.40;81.20
21805;DHT22;11064;47.102;15.452;2022-07-06T07:02:35;22.50;87.90
21805;DHT22;11064;47.102;15.452;2022-07-06T07:05:01;22.80;83.20
21805;DHT22;11064;47.102;15.452;2022-07-06T07:07:27;22.80;76.50
21805;DHT22;11064;47.102;15.452;2022-07-06T07:09:53;22.80;76.70
21805;DHT22;11064;47.102;15.452;2022-07-06T07:12:19;22.80;75.20
21805;DHT22;11064;47.102;15.452;2022-07-06T07:14:45;22.90;76.40
21805;DHT22;11064;47.102;15.452;2022-07-06T07:17:10;23.10;75.40
21805;DHT22;11064;47.102;15.452;2022-07-06T07:19:37;23.10;69.00
21805;DHT22;11064;47.102;15.452;2022-07-06T07:22:04;23.20;70.10
21805;DHT22;11064;47.102;15.452;2022-07-06T07:24:30;23.20;71.10
21805;DHT22;11064;47.102;15.452;2022-07-06T07:26:55;23.40;70.50
21805;DHT22;11064;47.102;15.452;2022-07-06T07:29:21;23.60;75.60
21805;DHT22;11064;47.102;15.452;2022-07-06T07:31:47;23.60;75.70
21805;DHT22;11064;47.102;15.452;2022-07-06T07:34:13;23.80;72.30
21805;DHT22;11064;47.102;15.452;2022-07-06T07:36:39;23.70;69.50
21805;DHT22;11064;47.102;15.452;2022-07-06T07:39:04;24.00;71.40
21805;DHT22;11064;47.102;15.452;2022-07-06T07:41:30;23.80;71.40
21805;DHT22;11064;47.102;15.452;2022-07-06T07:43:56;24.00;69.80
21805;DHT22;11064;47.102;15.452;2022-07-06T07:46:22;24.10;69.90
21805;DHT22;11064;47.102;15.452;2022-07-06T07:48:48;24.10;65.90
21805;DHT22;11064;47.102;15.452;2022-07-06T07:51:14;24.10;67.50
21805;DHT22;11064;47.102;15.452;2022-07-06T07:53:40;24.10;64.40
21805;DHT22;11064;47.102;15.452;2022-07-06T07:56:05;24.40;66.50
21805;DHT22;11064;47.102;15.452;2022-07-06T07:58:31;24.80;65.10
21805;DHT22;11064;47.102;15.452;2022-07-06T08:00:57;24.90;59.80
21805;DHT22;11064;47.102;15.452;2022-07-06T08:03:23;25.10;59.00
21805;DHT22;11064;47.102;15.452;2022-07-06T08:05:49;25.20;59.00
21805;DHT22;11064;47.102;15.452;2022-07-06T08:08:16;25.10;58.10
21805;DHT22;11064;47.102;15.452;2022-07-06T08:10:42;25.10;57.30
21805;DHT22;11064;47.102;15.452;2022-07-06T08:13:07;25.30;60.80
21805;DHT22;11064;47.102;15.452;2022-07-06T08:15:34;25.40;58.00
21805;DHT22;11064;47.102;15.452;2022-07-06T08:18:00;25.50;56.60
21805;DHT22;11064;47.102;15.452;2022-07-06T08:20:26;25.60;57.10
21805;DHT22;11064;47.102;15.452;2022-07-06T08:22:52;25.30;54.90
21805;DHT22;11064;47.102;15.452;2022-07-06T08:25:18;25.40;55.50
21805;DHT22;11064;47.102;15.452;2022-07-06T08:27:44;25.40;55.50
21805;DHT22;11064;47.102;15.452;2022-07-06T08:30:10;25.40;57.20
21805;DHT22;11064;47.102;15.452;2022-07-06T08:32:43;25.00;53.40
21805;DHT22;11064;47.102;15.452;2022-07-06T08:35:10;25.10;54.40
21805;DHT22;11064;47.102;15.452;2022-07-06T08:37:36;25.00;54.30
21805;DHT22;11064;47.102;15.452;2022-07-06T08:40:03;25.10;52.50
21805;DHT22;11064;47.102;15.452;2022-07-06T08:42:31;24.90;51.80
21805;DHT22;11064;47.102;15.452;2022-07-06T08:44:59;24.80;51.90
21805;DHT22;11064;47.102;15.452;2022-07-06T08:47:30;25.10;52.30
21805;DHT22;11064;47.102;15.452;2022-07-06T08:49:56;25.00;52.90
21805;DHT22;11064;47.102;15.452;2022-07-06T08:52:25;25.40;54.60
21805;DHT22;11064;47.102;15.452;2022-07-06T08:54:52;25.40;48.40
21805;DHT22;11064;47.102;15.452;2022-07-06T08:57:18;25.30;50.50
21805;DHT22;11064;47.102;15.452;2022-07-06T08:59:44;25.30;50.60
21805;DHT22;11064;47.102;15.452;2022-07-06T09:02:11;25.20;50.60
21805;DHT22;11064;47.102;15.452;2022-07-06T09:04:43;25.30;52.90
21805;DHT22;11064;47.102;15.452;2022-07-06T09:07:09;25.30;53.00
21805;DHT22;11064;47.102;15.452;2022-07-06T09:09:37;25.40;50.00
21805;DHT22;11064;47.102;15.452;2022-07-06T09:12:03;25.80;50.60
21805;DHT22;11064;47.102;15.452;2022-07-06T09:14:29;25.90;50.70
21805;DHT22;11064;47.102;15.452;2022-07-06T09:17:03;25.50;50.60
21805;DHT22;11064;47.102;15.452;2022-07-06T09:19:33;25.30;48.80
21805;DHT22;11064;47.102;15.452;2022-07-06T09:22:04;25.40;48.90
21805;DHT22;11064;47.102;15.452;2022-07-06T09:24:31;25.70;48.10
21805;DHT22;11064;47.102;15.452;2022-07-06T09:26:59;25.70;49.20
21805;DHT22;11064;47.102;15.452;2022-07-06T09:29:28;25.30;48.60
21805;DHT22;11064;47.102;15.452;2022-07-06T09:32:03;24.90;48.90
21805;DHT22;11064;47.102;15.452;2022-07-06T09:34:42;25.20;53.40
21805;DHT22;11064;47.102;15.452;2022-07-06T09:37:09;25.50;51.70
21805;DHT22;11064;47.102;15.452;2022-07-06T09:39:35;25.40;49.30
21805;DHT22;11064;47.102;15.452;2022-07-06T09:42:02;25.40;49.80
21805;DHT22;11064;47.102;15.452;2022-07-06T09:44:35;25.40;47.90
21805;DHT22;11064;47.102;15.452;2022-07-06T09:47:10;25.40;47.40
21805;DHT22;11064;47.102;15.452;2022-07-06T09:49:38;25.40;48.70
21805;DHT22;11064;47.102;15.452;2022-07-06T09:52:09;25.60;49.00
21805;DHT22;11064;47.102;15.452;2022-07-06T09:54:36;25.50;48.90
21805;DHT22;11064;47.102;15.452;2022-07-06T09:57:03;25.00;50.60
21805;DHT22;11064;47.102;15.452;2022-07-06T09:59:30;24.30;49.10
21805;DHT22;11064;47.102;15.452;2022-07-06T10:01:59;24.30;49.70
21805;DHT22;11064;47.102;15.452;2022-07-06T10:04:26;24.40;49.10
21805;DHT22;11064;47.102;15.452;2022-07-06T10:06:53;24.90;48.20
21805;DHT22;11064;47.102;15.452;2022-07-06T10:09:20;25.10;49.00
21805;DHT22;11064;47.102;15.452;2022-07-06T10:11:58;25.50;49.40
21805;DHT22;11064;47.102;15.452;2022-07-06T10:14:29;25.80;52.60
21805;DHT22;11064;47.102;15.452;2022-07-06T10:17:01;26.10;49.80
21805;DHT22;11064;47.102;15.452;2022-07-06T10:19:29;26.00;48.80
21805;DHT22;11064;47.102;15.452;2022-07-06T10:21:58;26.30;47.60
21805;DHT22;11064;47.102;15.452;2022-07-06T10:24:24;26.50;46.90
21805;DHT22;11064;47.102;15.452;2022-07-06T10:26:52;26.10;45.30
21805;DHT22;11064;47.102;15.452;2022-07-06T10:29:18;26.10;44.70
21805;DHT22;11064;47.102;15.452;2022-07-06T10:31:46;26.10;44.50
21805;DHT22;11064;47.102;15.452;2022-07-06T10:34:15;26.00;45.00
21805;DHT22;11064;47.102;15.452;2022-07-06T10:36:43;26.10;46.20
21805;DHT22;11064;47.102;15.452;2022-07-06T10:39:10;26.10;43.30
21805;DHT22;11064;47.102;15.452;2022-07-06T10:41:55;26.10;44.20
21805;DHT22;11064;47.102;15.452;2022-07-06T10:44:23;26.40;44.00
21805;DHT22;11064;47.102;15.452;2022-07-06T10:46:54;26.40;44.40
21805;DHT22;11064;47.102;15.452;2022-07-06T10:49:21;26.30;45.30
21805;DHT22;11064;47.102;15.452;2022-07-06T10:51:48;25.90;45.40
21805;DHT22;11064;47.102;15.452;2022-07-06T10:54:16;26.00;45.00
21805;DHT22;11064;47.102;15.452;2022-07-06T10:56:47;25.90;45.10
21805;DHT22;11064;47.102;15.452;2022-07-06T10:59:23;26.00;44.30
21805;DHT22;11064;47.102;15.452;2022-07-06T11:02:21;26.20;44.50
21805;DHT22;11064;47.102;15.452;2022-07-06T11:04:48;26.20;45.60
21805;DHT22;11064;47.102;15.452;2022-07-06T11:07:16;26.20;44.60
21805;DHT22;11064;47.102;15.452;2022-07-06T11:09:55;26.30;45.10
21805;DHT22;11064;47.102;15.452;2022-07-06T11:12:21;26.40;43.90
21805;DHT22;11064;47.102;15.452;2022-07-06T11:14:49;26.50;44.10
21805;DHT22;11064;47.102;15.452;2022-07-06T11:17:16;26.80;43.90
21805;DHT22;11064;47.102;15.452;2022-07-06T11:20:08;26.60;42.60
21805;DHT22;11064;47.102;15.452;2022-07-06T11:22:36;26.40;42.20
21805;DHT22;11064;47.102;15.452;2022-07-06T11:25:04;26.50;43.10
21805;DHT22;11064;47.102;15.452;2022-07-06T11:27:30;26.70;43.40
21805;DHT22;11064;47.102;15.452;2022-07-06T11:29:56;26.60;42.10
21805;DHT22;11064;47.102;15.452;2022-07-06T11:32:26;26.50;44.70
21805;DHT22;11064;47.102;15.452;2022-07-06T11:34:52;26.10;42.70
21805;DHT22;11064;47.102;15.452;2022-07-06T11:37:18;26.00;42.10
21805;DHT22;11064;47.102;15.452;2022-07-06T11:39:48;26.00;41.90
21805;DHT22;11064;47.102;15.452;2022-07-06T11:42:15;26.20;43.80
21805;DHT22;11064;47.102;15.452;2022-07-06T11:44:42;26.10;43.10
21805;DHT22;11064;47.102;15.452;2022-07-06T11:47:10;26.30;43.50
21805;DHT22;11064;47.102;15.452;2022-07-06T11:49:37;26.30;42.90
21805;DHT22;11064;47.102;15.452;2022-07-06T11:52:08;26.40;43.70
21805;DHT22;11064;47.102;15.452;2022-07-06T11:54:34;26.50;41.90
21805;DHT22;11064;47.102;15.452;2022-07-06T11:57:00;26.70;43.20
21805;DHT22;11064;47.102;15.452;2022-07-06T11:59:37;26.80;43.70
21805;DHT22;11064;47.102;15.452;2022-07-06T12:02:05;26.90;41.60
21805;DHT22;11064;47.102;15.452;2022-07-06T12:04:33;26.60;41.10
21805;DHT22;11064;47.102;15.452;2022-07-06T12:07:04;26.30;39.80
21805;DHT22;11064;47.102;15.452;2022-07-06T12:09:32;26.30;41.40
21805;DHT22;11064;47.102;15.452;2022-07-06T12:11:57;26.10;40.10
21805;DHT22;11064;47.102;15.452;2022-07-06T12:14:28;26.10;42.70
21805;DHT22;11064;47.102;15.452;2022-07-06T12:16:54;26.10;43.80
21805;DHT22;11064;47.102;15.452;2022-07-06T12:19:22;26.30;43.10
21805;DHT22;11064;47.102;15.452;2022-07-06T12:21:50;26.30;42.20
21805;DHT22;11064;47.102;15.452;2022-07-06T12:24:24;26.50;41.80
21805;DHT22;11064;47.102;15.452;2022-07-06T12:26:51;26.60;43.40
21805;DHT22;11064;47.102;15.452;2022-07-06T12:29:18;26.50;42.40
21805;DHT22;11064;47.102;15.452;2022-07-06T12:31:54;26.50;40.50
21805;DHT22;11064;47.102;15.452;2022-07-06T12:34:26;26.50;41.80
21805;DHT22;11064;47.102;15.452;2022-07-06T12:36:56;26.50;41.40
21805;DHT22;11064;47.102;15.452;2022-07-06T12:39:25;27.00;41.00
21805;DHT22;11064;47.102;15.452;2022-07-06T12:41:53;27.20;41.10
21805;DHT22;11064;47.102;15.452;2022-07-06T12:44:24;27.40;43.30
21805;DHT22;11064;47.102;15.452;2022-07-06T12:46:50;27.70;41.20
21805;DHT22;11064;47.102;15.452;2022-07-06T12:51:54;28.20;38.20
21805;DHT22;11064;47.102;15.452;2022-07-06T12:54:20;28.20;38.10
21805;DHT22;11064;47.102;15.452;2022-07-06T12:59:29;27.90;37.40
21805;DHT22;11064;47.102;15.452;2022-07-06T13:01:55;27.80;39.80
21805;DHT22;11064;47.102;15.452;2022-07-06T13:04:23;27.80;43.40
21805;DHT22;11064;47.102;15.452;2022-07-06T13:06:49;27.90;42.00
21805;DHT22;11064;47.102;15.452;2022-07-06T13:09:14;27.50;37.20
21805;DHT22;11064;47.102;15.452;2022-07-06T13:11:42;27.60;39.80
21805;DHT22;11064;47.102;15.452;2022-07-06T13:14:11;28.10;39.60
21805;DHT22;11064;47.102;15.452;2022-07-06T13:16:37;28.30;36.90
21805;DHT22;11064;47.102;15.452;2022-07-06T13:19:03;28.60;37.30
21805;DHT22;11064;47.102;15.452;2022-07-06T13:21:29;29.20;38.60
21805;DHT22;11064;47.102;15.452;2022-07-06T13:23:54;29.50;38.10
21805;DHT22;11064;47.102;15.452;2022-07-06T13:26:21;29.60;38.10
21805;DHT22;11064;47.102;15.452;2022-07-06T13:28:47;29.20;40.00
21805;DHT22;11064;47.102;15.452;2022-07-06T13:31:13;29.00;40.70
21805;DHT22;11064;47.102;15.452;2022-07-06T13:33:39;29.40;39.00
21805;DHT22;11064;47.102;15.452;2022-07-06T13:36:05;29.30;36.60
21805;DHT22;11064;47.102;15.452;2022-07-06T13:38:30;29.30;37.80
21805;DHT22;11064;47.102;15.452;2022-07-06T13:40:56;29.50;38.60
21805;DHT22;11064;47.102;15.452;2022-07-06T13:43:22;29.40;39.70
21805;DHT22;11064;47.102;15.452;2022-07-06T13:45:48;28.80;41.60
21805;DHT22;11064;47.102;15.452;2022-07-06T13:48:14;28.20;38.30
21805;DHT22;11064;47.102;15.452;2022-07-06T13:50:40;27.70;38.60
21805;DHT22;11064;47.102;15.452;2022-07-06T13:53:06;27.30;40.50
21805;DHT22;11064;47.102;15.452;2022-07-06T13:55:32;27.20;38.80
21805;DHT22;11064;47.102;15.452;2022-07-06T13:57:59;27.10;39.70
21805;DHT22;11064;47.102;15.452;2022-07-06T14:00:25;27.60;40.30
21805;DHT22;11064;47.102;15.452;2022-07-06T14:02:51;28.40;40.50
21805;DHT22;11064;47.102;15.452;2022-07-06T14:05:17;28.30;39.50
21805;DHT22;11064;47.102;15.452;2022-07-06T14:07:43;28.30;37.60
21805;DHT22;11064;47.102;15.452;2022-07-06T14:10:08;28.40;40.40
21805;DHT22;11064;47.102;15.452;2022-07-06T14:12:34;28.90;40.60
21805;DHT22;11064;47.102;15.452;2022-07-06T14:15:00;28.70;41.60
21805;DHT22;11064;47.102;15.452;2022-07-06T14:17:26;28.10;40.10
21805;DHT22;11064;47.102;15.452;2022-07-06T14:19:52;27.60;42.00
21805;DHT22;11064;47.102;15.452;2022-07-06T14:22:18;27.30;41.50
21805;DHT22;11064;47.102;15.452;2022-07-06T14:24:44;27.20;41.40
21805;DHT22;11064;47.102;15.452;2022-07-06T14:27:09;27.20;41.00
21805;DHT22;11064;47.102;15.452;2022-07-06T14:29:35;27.20;42.90
21805;DHT22;11064;47.102;15.452;2022-07-06T14:32:01;27.20;42.30
21805;DHT22;11064;47.102;15.452;2022-07-06T14:34:27;27.10;43.10
21805;DHT22;11064;47.102;15.452;2022-07-06T14:36:52;27.40;43.60
21805;DHT22;11064;47.102;15.452;2022-07-06T14:39:18;27.40;44.60
21805;DHT22;11064;47.102;15.452;2022-07-06T14:41:44;27.30;42.90
21805;DHT22;11064;47.102;15.452;2022-07-06T14:44:09;27.30;42.50
21805;DHT22;11064;47.102;15.452;2022-07-06T14:46:35;27.30;41.90
21805;DHT22;11064;47.102;15.452;2022-07-06T14:49:01;27.20;42.40
21805;DHT22;11064;47.102;15.452;2022-07-06T14:51:27;27.30;42.00
21805;DHT22;11064;47.102;15.452;2022-07-06T14:53:53;27.60;41.90
21805;DHT22;11064;47.102;15.452;2022-07-06T14:56:19;27.70;43.60
21805;DHT22;11064;47.102;15.452;2022-07-06T14:58:45;27.50;42.90
21805;DHT22;11064;47.102;15.452;2022-07-06T15:01:10;27.50;43.60
21805;DHT22;11064;47.102;15.452;2022-07-06T15:03:36;27.30;43.60
21805;DHT22;11064;47.102;15.452;2022-07-06T15:06:02;27.20;42.80
21805;DHT22;11064;47.102;15.452;2022-07-06T15:08:28;27.20;43.80
21805;DHT22;11064;47.102;15.452;2022-07-06T15:10:54;27.30;44.20
21805;DHT22;11064;47.102;15.452;2022-07-06T15:13:20;27.50;43.90
21805;DHT22;11064;47.102;15.452;2022-07-06T15:15:46;27.10;41.90
21805;DHT22;11064;47.102;15.452;2022-07-06T15:18:12;26.60;43.10
21805;DHT22;11064;47.102;15.452;2022-07-06T15:20:38;26.20;43.80
21805;DHT22;11064;47.102;15.452;2022-07-06T15:23:03;26.00;44.70
21805;DHT22;11064;47.102;15.452;2022-07-06T15:25:29;25.90;45.50
21805;DHT22;11064;47.102;15.452;2022-07-06T15:27:55;25.80;45.20
21805;DHT22;11064;47.102;15.452;2022-07-06T15:30:21;25.90;46.00
21805;DHT22;11064;47.102;15.452;2022-07-06T15:32:48;26.10;46.40
21805;DHT22;11064;47.102;15.452;2022-07-06T15:35:14;26.70;45.50
21805;DHT22;11064;47.102;15.452;2022-07-06T15:37:41;27.50;42.40
21805;DHT22;11064;47.102;15.452;2022-07-06T15:40:07;28.20;41.00
21805;DHT22;11064;47.102;15.452;2022-07-06T15:42:39;28.20;40.00
21805;DHT22;11064;47.102;15.452;2022-07-06T15:45:06;28.40;39.90
21805;DHT22;11064;47.102;15.452;2022-07-06T15:47:32;28.10;40.30
21805;DHT22;11064;47.102;15.452;2022-07-06T15:49:58;28.40;40.00
21805;DHT22;11064;47.102;15.452;2022-07-06T15:52:24;29.00;39.70
21805;DHT22;11064;47.102;15.452;2022-07-06T15:54:49;29.50;38.90
21805;DHT22;11064;47.102;15.452;2022-07-06T15:57:15;30.30;36.80
21805;DHT22;11064;47.102;15.452;2022-07-06T15:59:41;30.90;35.60
21805;DHT22;11064;47.102;15.452;2022-07-06T16:02:07;31.00;34.60
21805;DHT22;11064;47.102;15.452;2022-07-06T16:04:33;30.90;35.20
21805;DHT22;11064;47.102;15.452;2022-07-06T16:06:58;30.70;35.90
21805;DHT22;11064;47.102;15.452;2022-07-06T16:09:24;30.30;37.80
21805;DHT22;11064;47.102;15.452;2022-07-06T16:11:50;30.10;38.30
21805;DHT22;11064;47.102;15.452;2022-07-06T16:14:16;29.60;38.20
21805;DHT22;11064;47.102;15.452;2022-07-06T16:16:42;28.80;40.10
21805;DHT22;11064;47.102;15.452;2022-07-06T16:19:08;28.90;39.80
21805;DHT22;11064;47.102;15.452;2022-07-06T16:21:33;28.00;40.20
21805;DHT22;11064;47.102;15.452;2022-07-06T16:23:59;27.90;41.80
21805;DHT22;11064;47.102;15.452;2022-07-06T16:26:25;27.80;42.80
21805;DHT22;11064;47.102;15.452;2022-07-06T16:28:51;27.60;41.70
21805;DHT22;11064;47.102;15.452;2022-07-06T16:31:16;27.50;42.50
21805;DHT22;11064;47.102;15.452;2022-07-06T16:33:43;27.30;42.90
21805;DHT22;11064;47.102;15.452;2022-07-06T16:36:09;27.10;44.10
21805;DHT22;11064;47.102;15.452;2022-07-06T16:38:37;27.20;44.30
21805;DHT22;11064;47.102;15.452;2022-07-06T16:41:04;27.10;43.60
21805;DHT22;11064;47.102;15.452;2022-07-06T16:43:30;27.30;43.20
21805;DHT22;11064;47.102;15.452;2022-07-06T16:45:56;27.50;42.50
21805;DHT22;11064;47.102;15.452;2022-07-06T16:48:22;28.00;41.60
21805;DHT22;11064;47.102;15.452;2022-07-06T16:50:48;28.20;40.90
21805;DHT22;11064;47.102;15.452;2022-07-06T16:53:14;28.10;40.70
21805;DHT22;11064;47.102;15.452;2022-07-06T16:55:39;28.00;41.90
21805;DHT22;11064;47.102;15.452;2022-07-06T16:58:05;27.70;42.50
21805;DHT22;11064;47.102;15.452;2022-07-06T17:00:31;27.40;44.20
21805;DHT22;11064;47.102;15.452;2022-07-06T17:02:59;27.10;46.00
21805;DHT22;11064;47.102;15.452;2022-07-06T17:05:25;26.10;47.70
21805;DHT22;11064;47.102;15.452;2022-07-06T17:07:50;25.60;49.70
21805;DHT22;11064;47.102;15.452;2022-07-06T17:10:17;25.50;51.90
21805;DHT22;11064;47.102;15.452;2022-07-06T17:12:42;25.30;52.40
21805;DHT22;11064;47.102;15.452;2022-07-06T17:15:09;25.20;54.20
21805;DHT22;11064;47.102;15.452;2022-07-06T17:17:35;25.00;55.00
21805;DHT22;11064;47.102;15.452;2022-07-06T17:20:01;24.90;56.10
21805;DHT22;11064;47.102;15.452;2022-07-06T17:22:27;24.60;56.80
21805;DHT22;11064;47.102;15.452;2022-07-06T17:24:52;24.30;57.00
21805;DHT22;11064;47.102;15.452;2022-07-06T17:27:18;24.20;58.10
21805;DHT22;11064;47.102;15.452;2022-07-06T17:29:44;24.10;58.80
21805;DHT22;11064;47.102;15.452;2022-07-06T17:32:10;23.90;59.70
21805;DHT22;11064;47.102;15.452;2022-07-06T17:34:36;23.70;59.60
21805;DHT22;11064;47.102;15.452;2022-07-06T17:37:01;23.60;59.30
21805;DHT22;11064;47.102;15.452;2022-07-06T17:39:27;23.40;60.40
21805;DHT22;11064;47.102;15.452;2022-07-06T17:41:53;23.40;61.70
21805;DHT22;11064;47.102;15.452;2022-07-06T17:44:19;23.30;61.80
21805;DHT22;11064;47.102;15.452;2022-07-06T17:46:45;23.20;62.40
21805;DHT22;11064;47.102;15.452;2022-07-06T17:49:11;23.20;61.90
21805;DHT22;11064;47.102;15.452;2022-07-06T17:51:37;23.20;62.00
21805;DHT22;11064;47.102;15.452;2022-07-06T17:54:03;23.20;61.60
21805;DHT22;11064;47.102;15.452;2022-07-06T17:56:29;23.20;62.70
21805;DHT22;11064;47.102;15.452;2022-07-06T17:58:55;23.20;63.20
21805;DHT22;11064;47.102;15.452;2022-07-06T18:01:22;23.10;63.50
21805;DHT22;11064;47.102;15.452;2022-07-06T18:03:48;23.10;63.70
21805;DHT22;11064;47.102;15.452;2022-07-06T18:06:14;23.10;65.00
21805;DHT22;11064;47.102;15.452;2022-07-06T18:08:39;23.10;64.80
21805;DHT22;11064;47.102;15.452;2022-07-06T18:11:05;23.00;64.90
21805;DHT22;11064;47.102;15.452;2022-07-06T18:13:31;22.80;66.80
21805;DHT22;11064;47.102;15.452;2022-07-06T18:15:59;22.70;67.30
21805;DHT22;11064;47.102;15.452;2022-07-06T18:18:25;22.60;66.90
21805;DHT22;11064;47.102;15.452;2022-07-06T18:20:51;22.50;66.70
21805;DHT22;11064;47.102;15.452;2022-07-06T18:23:22;22.40;67.80
21805;DHT22;11064;47.102;15.452;2022-07-06T18:25:49;22.30;68.80
21805;DHT22;11064;47.102;15.452;2022-07-06T18:28:15;22.10;69.00
21805;DHT22;11064;47.102;15.452;2022-07-06T18:30:45;22.00;69.20
21805;DHT22;11064;47.102;15.452;2022-07-06T18:33:11;21.90;69.10
21805;DHT22;11064;47.102;15.452;2022-07-06T18:35:37;21.90;71.20
21805;DHT22;11064;47.102;15.452;2022-07-06T18:38:03;21.80;71.90
21805;DHT22;11064;47.102;15.452;2022-07-06T18:40:28;21.70;74.30
21805;DHT22;11064;47.102;15.452;2022-07-06T18:42:54;21.60;73.70
21805;DHT22;11064;47.102;15.452;2022-07-06T18:45:20;21.50;71.50
21805;DHT22;11064;47.102;15.452;2022-07-06T18:47:46;21.40;70.70
21805;DHT22;11064;47.102;15.452;2022-07-06T18:50:15;21.40;70.70
21805;DHT22;11064;47.102;15.452;2022-07-06T18:52:41;21.40;70.10
21805;DHT22;11064;47.102;15.452;2022-07-06T18:55:07;21.30;70.40
21805;DHT22;11064;47.102;15.452;2022-07-06T18:57:33;21.10;71.40
21805;DHT22;11064;47.102;15.452;2022-07-06T18:59:59;21.00;71.80
21805;DHT22;11064;47.102;15.452;2022-07-06T19:02:26;20.90;73.20
21805;DHT22;11064;47.102;15.452;2022-07-06T19:04:52;20.80;74.30
21805;DHT22;11064;47.102;15.452;2022-07-06T19:07:18;20.60;77.10
21805;DHT22;11064;47.102;15.452;2022-07-06T19:09:44;20.50;77.10
21805;DHT22;11064;47.102;15.452;2022-07-06T19:12:10;20.50;77.50
21805;DHT22;11064;47.102;15.452;2022-07-06T19:14:36;20.50;77.50
21805;DHT22;11064;47.102;15.452;2022-07-06T19:17:02;20.40;78.70
21805;DHT22;11064;47.102;15.452;2022-07-06T19:19:27;20.40;78.50
21805;DHT22;11064;47.102;15.452;2022-07-06T19:21:53;20.40;79.60